Weather observations for the past three days for
Fort Myers, Page Field
Metric (Imperial)
Date Time (edt) Wind (kph) Vis. (km) Weather Sky Cond. Temperature (ºC) Relative Humidity Wind Chill (°C) Heat Index (°C) Pressure Precipitation (cm)
Air Dwpt 6 hour altimeter (cm) sea level (mb) 1 hr 3 hr 6 hr
Max. Min.
02 14:53 W 19 G 37 16.09 A Few Clouds FEW029 32.2 20.6 50% 35 75.87 1011.5
02 13:53 SW 24 16.09 A Few Clouds FEW027 31.7 21.1 31.7 23.3 53% 35 75.87 1011.8
02 12:53 SW 30 G 43 16.09 A Few Clouds FEW023 31.7 22.2 57% 36 75.9 1012.0
02 11:53 SW 22 G 43 16.09 Fair CLR 30 22.2 63% 33 75.9 1012.0
02 10:53 SW 30 G 41 16.09 A Few Clouds FEW021 29.4 22.2 65% 33 75.87 1011.8
02 09:53 SW 22 16.09 Partly Cloudy SCT023 28.3 22.2 70% 31 75.87 1011.6
02 08:53 SW 15 16.09 Fair CLR 26.1 22.2 79% 28 75.84 1011.3
02 07:53 S 7 16.09 Fair CLR 23.3 20.6 23.3 21.7 85% 75.82 1011.1
02 06:53 SE 6 16.09 A Few Clouds FEW070 22.2 20 87% 75.82 1011.1
02 05:53 SE 7 16.09 Mostly Cloudy BKN070 21.7 20 90% 75.84 1011.2
02 04:53 SE 9 16.09 Partly Cloudy SCT055 21.7 19.4 87% 75.84 1011.5
02 03:53 SE 11 16.09 Partly Cloudy SCT055 21.7 18.9 84% 75.87 1011.5
02 02:53 SE 6 16.09 Fair CLR 22.2 19.4 84% 75.84 1011.5
02 01:53 Calm 16.09 Fair CLR 22.8 18.9 26.7 22.8 79% 75.87 1011.7
02 00:53 Calm 16.09 Fair CLR 23.3 18.9 76% 75.9 1012.1
01 23:53 Calm 16.09 Fair CLR 24.4 18.9 72% 25 75.9 1012.0
01 22:53 SW 6 16.09 Fair CLR 25 18.3 66% 26 75.92 1012.3
01 21:53 SW 7 16.09 Fair CLR 25 17.2 62% 26 75.9 1012.0
01 20:53 W 11 16.09 Fair CLR 25.6 16.1 56% 26 75.84 1011.3
01 19:53 SW 13 16.09 Fair CLR 27.2 15.6 31.1 27.2 49% 28 75.79 1010.6
01 18:53 W 17 16.09 Fair CLR 28.3 16.1 48% 29 75.77 1010.3
01 17:53 W 11 16.09 Fair CLR 28.9 17.2 49% 29 75.77 1010.2
01 16:53 SW 17 16.09 Fair CLR 29.4 18.3 51% 30 75.82 1010.9
01 15:53 W 19 16.09 Fair CLR 30.6 17.2 45% 31 75.87 1011.5
01 14:53 W 17 16.09 Fair CLR 31.1 13.3 34% 30 75.9 1012.0
01 13:53 W 15 G 31 16.09 A Few Clouds FEW038 30 18.3 30.6 22.8 49% 31 75.95 1012.8
01 12:53 SW 20 G 31 16.09 Fair CLR 30 18.3 49% 31 75.97 1013.0
01 11:53 W 13 G 28 16.09 Partly Cloudy SCT042 28.9 18.9 55% 30 76 1013.3
01 10:53 Calm 16.09 Fair CLR 28.3 18.9 57% 30 76 1013.4
01 09:53 NW 9 16.09 Partly Cloudy SCT019 26.7 19.4 64% 28 76.02 1013.6
01 08:53 Calm 16.09 A Few Clouds FEW025 25 21.1 79% 26 76 1013.2
01 07:53 Calm 16.09 Fair CLR 22.8 21.1 23.9 21.1 90% 75.97 1012.9
01 06:53 SE 6 16.09 A Few Clouds FEW015 21.7 20 90% 75.92 1012.5
01 05:53 Calm 16.09 Fair CLR 21.7 20 90% 75.9 1012.1
01 04:53 NW 6 16.09 Fair CLR 22.8 20.6 87% 75.87 1011.7
01 03:53 W 7 16.09 Fair CLR 23.3 20.6 85% 75.87 1011.6
01 02:53 W 9 16.09 Fair CLR 23.3 20.6 85% 75.9 1011.8
01 01:53 W 11 16.09 Fair CLR 23.9 20.6 26.1 23.9 82% 24 75.92 1012.3
01 00:53 W 13 16.09 Fair CLR 23.9 20.6 82% 24 75.95 1012.6
30 23:53 W 9 16.09 Fair CLR 24.4 20.6 79% 25 75.95 1012.5
30 22:53 NW 11 16.09 Fair CLR 24.4 20.6 79% 25 75.95 1012.8
30 21:53 NW 13 16.09 Fair CLR 25 20.6 77% 26 75.92 1012.4
30 20:53 W 15 16.09 Fair CLR 25.6 19.4 69% 27 75.92 1012.2
30 19:53 W 15 16.09 Fair CLR 26.1 18.3 30.6 26.1 62% 27 75.87 1011.6
30 18:53 W 13 16.09 Fair CLR 27.8 16.7 51% 28 75.84 1011.3
30 17:53 W 20 16.09 Fair CLR 28.9 16.1 46% 29 75.84 1011.4
30 16:53 SW 19 16.09 Fair CLR 29.4 17.2 48% 30 75.82 1011.0
30 15:53 W 22 G 33 16.09 Fair CLR 30 17.2 46% 30 75.87 1011.7
30 14:53 W 19 G 33 16.09 Fair CLR 30 17.2 46% 30 75.92 1012.2
30 13:53 SW 17 G 30 16.09 Fair CLR 29.4 17.2 30.6 22.8 48% 30 75.92 1012.4
30 12:53 W 19 16.09 Partly Cloudy SCT035 SCT044 30.6 19.4 51% 32 75.95 1012.5
30 11:53 W 9 16.09 Fair CLR 29.4 16.7 46% 30 75.97 1012.9
30 10:53 Vrbl 9 16.09 Fair CLR 27.8 17.2 53% 28 76.02 1013.6
30 09:53 W 15 16.09 Fair CLR 26.7 18.9 62% 28 76.02 1013.5
30 08:53 Vrbl 9 16.09 Fair CLR 25 21.1 79% 26 76 1013.4
30 07:53 S 7 16.09 Fair CLR 22.8 21.1 23.9 21.7 90% 75.95 1012.7
30 06:53 Calm 16.09 Fair CLR 21.7 20.6 94% 75.97 1012.9
30 05:53 Calm 16.09 Fair CLR 21.7 20 90% 75.95 1012.6
30 04:53 Calm 16.09 Fair CLR 21.7 20.6 94% 75.95 1012.8
30 03:53 Calm 16.09 Partly Cloudy SCT050 22.2 20.6 91% 75.97 1012.9
30 02:53 Calm 16.09 Fair CLR 22.8 21.1 90% 75.97 1013.0
30 01:53 Calm 16.09 A Few Clouds FEW015 23.9 21.1 26.7 23.3 84% 24 76.02 1013.7
30 00:53 NW 6 16.09 Mostly Cloudy BKN016 23.9 21.1 84% 24 76.07 1014.2
29 23:53 Calm 16.09 Fair CLR 23.9 21.7 88% 24 76.05 1014.2
29 22:53 NW 11 16.09 Fair CLR 24.4 21.1 82% 25 76.05 1014.1
29 21:53 NW 11 16.09 Fair CLR 25 20.6 77% 26 76.02 1013.7
29 20:53 NW 13 16.09 Fair CLR 25.6 18.9 67% 27 75.97 1012.9
29 19:53 W 17 16.09 Fair CLR 26.7 18.3 31.7 26.7 60% 28 75.92 1012.4
29 18:53 W 19 16.09 Fair CLR 28.3 18.3 55% 29 75.92 1012.2
29 17:53 NW 22 16.09 Fair CLR 30 17.2 46% 30 75.95 1012.5
29 16:53 W 19 G 35 16.09 Fair CLR 30.6 17.8 46% 31 75.95 1012.7
29 15:53 W 22 G 35 16.09 Fair CLR 31.1 18.3 46% 32 76 1013.5
Date Time (edt) Wind (kph) Vis. (km) Weather Sky Cond. Air Dwpt Max. Min. Relative Humidity Wind Chill (°C) Heat Index (°C) altimeter (cm) sea level (mb) 1 hr 3 hr 6 hr
6 hour
Temperature (ºC) Pressure Precipitation (cm)